Terminal Aerodrome Forecast
Issued by NWS Paducah, KY

Home | Current Version | Previous Version | Text Only | Print | Product List | Glossary On
Versions: 1 2 3 4 5 6 7 8 9 10 11 12 13 14 15
658
FTUS43 KPAH 231120
TAFEVV
TAF
KEVV 231120Z 2312/2412 18010G15KT 4SM -SHRA BR SCT015 BKN030
      TEMPO 2312/2316 2SM SHRA BR BKN015
     FM232000 28010G15KT P6SM VCSH BKN025
     FM240100 31012G18KT P6SM SCT025 BKN050
     FM240700 32007KT P6SM SCT050=

USA.gov is the U.S. government's official web portal to all federal, state and local government web resources and services.